Aviation Digital Data Service (ADDS)

Output produced by METARs form (1342 UTC 26 May 2018)
found at http://www.aviationweather.gov/adds/metars/
 
OTBD 261300Z 01009KT 9000 NSC 36/16 Q1005 NOSIG
TAF OTBD 261102Z 2612/2718 04010KT 8000 NSC 
     BECMG 2617/2619 VRB02KT
       
OTBH 261256Z 02012KT 8000 HZ BKN180 40/03 A2966 RMK AO2A SLP044 T04000026
TAF OTBH 260700Z 2607/2713 03009KT 8000 HZ SCT120 BKN150 QNH2974INS 
     BECMG 2609/2610 02010G15KT 8000 HZ BKN150 QNH2968INS 
     BECMG 2614/2615 05012G18KT 8000 HZ BKN150 QNH2968INS 
     BECMG 2621/2622 VRB06KT 9000 HZ BKN150 QNH2966INS 
     BECMG 2711/2712 10010G15KT 8000 HZ BKN170 QNH2966INS TX39/2611Z TN24/2702Z